Aleksandr Zhitnik — EMBN — position and weather

sailwx.info

Track history (hours):
 
Tides and Currents Weather Stations Pressure Air Temp Water Temp Dewpoint Dewpoint Depression Visibility Wind Speed Wind Dir Waves Ship Positions

Aleksandr Zhitnik

Last reported at 2016-Oct-28 00:30 UTC. Time now 2016-Dec-05 02:21 UTC.
Position N 43°51' E 023°23'.
Warning: this ship's position is 38 days out of date.

Length 85 m; draft 1.7 m.

MMSI: 272089600.

Date/timePositionNaut miles runAvg speedWind from/ knotsBaromVisibWave heightAir tempDewpointWater temp
2016-Oct-28 00:30N 43°51' E 023°23'20 2.8
2016-Oct-27 17:33N 43°49' E 022°56'10 5.2
2016-Oct-27 15:33N 43°60' E 022°54'16 4.1
2016-Oct-27 11:33N 44°13' E 022°41'8 4.0
2016-Oct-27 09:33N 44°19' E 022°34'12 3.1
2016-Oct-27 05:33N 44°31' E 022°34'4 4.5
2016-Oct-27 04:33N 44°32' E 022°40'4 4.3
2016-Oct-27 03:33N 44°33' E 022°45'12 4.0
2016-Oct-27 00:34N 44°40' E 022°32'2 0.7
2016-Oct-26 21:33N 44°42' E 022°29'0 0.0
2016-Oct-26 16:33N 44°42' E 022°30'0 0.2
2016-Oct-26 15:33N 44°42' E 022°30'3 3.5
2016-Oct-26 14:33N 44°42' E 022°25'12 5.2
2016-Oct-26 12:19N 44°34' E 022°14'5 5.7
2016-Oct-26 11:30N 44°29' E 022°12'4 4.7
2016-Oct-26 10:33N 44°30' E 022°05'6 5.8
2016-Oct-26 09:33N 44°35' E 022°02'25 5.0
2016-Oct-26 04:33N 44°46' E 021°30'  
2016-Oct-21 06:33N 44°43' E 021°03'6 1.0
2016-Oct-21 00:28N 44°40' E 020°55'0 0.0
2016-Oct-20 22:31N 44°40' E 020°55'0 0.0
2016-Oct-20 20:31N 44°40' E 020°55'0 0.0
2016-Oct-20 04:32N 44°40' E 020°55'0 0.0
2016-Oct-20 00:32N 44°40' E 020°55'0 0.0
2016-Oct-19 22:33N 44°40' E 020°55'0 0.0
2016-Oct-19 20:33N 44°40' E 020°55'3 3.2
2016-Oct-19 19:33N 44°39' E 020°51'12 4.1
2016-Oct-19 16:33N 44°48' E 020°38'4 3.8
2016-Oct-19 15:33N 44°51' E 020°36'4 4.5
2016-Oct-19 14:33N 44°50' E 020°30'1 0.6
2016-Oct-19 12:32N 44°49' E 020°29'0 0.0
2016-Oct-18 21:32N 44°49' E 020°29'0 0.0
2016-Oct-18 18:32N 44°49' E 020°29'0 0.0
2016-Oct-18 14:32N 44°49' E 020°29'0 0.0
2016-Oct-18 13:32N 44°49' E 020°29'0 0.0
2016-Oct-18 10:32N 44°49' E 020°29'0 0.0
2016-Oct-18 09:32N 44°49' E 020°29'0 0.0
2016-Oct-18 07:32N 44°49' E 020°29'  
Track history (hours):
 
Tides and Currents Weather Stations Pressure Air Temp Water Temp Dewpoint Dewpoint Depression Visibility Wind Speed Wind Dir Waves Ship Positions

Aleksandr Zhitnik

Last reported at 2016-Oct-28 00:30 UTC. Time now 2016-Dec-05 02:21 UTC.
Position N 43°51' E 023°23'.
Warning: this ship's position is 38 days out of date.

Length 85 m; draft 1.7 m.

MMSI: 272089600.

Date/timePositionNaut miles runAvg speedWind from/ knotsBaromVisibWave heightAir tempDewpointWater temp
2016-Oct-28 00:30N 43°51' E 023°23'20 2.8
2016-Oct-27 17:33N 43°49' E 022°56'10 5.2
2016-Oct-27 15:33N 43°60' E 022°54'16 4.1
2016-Oct-27 11:33N 44°13' E 022°41'8 4.0
2016-Oct-27 09:33N 44°19' E 022°34'12 3.1
2016-Oct-27 05:33N 44°31' E 022°34'4 4.5
2016-Oct-27 04:33N 44°32' E 022°40'4 4.3
2016-Oct-27 03:33N 44°33' E 022°45'12 4.0
2016-Oct-27 00:34N 44°40' E 022°32'2 0.7
2016-Oct-26 21:33N 44°42' E 022°29'0 0.0
2016-Oct-26 16:33N 44°42' E 022°30'0 0.2
2016-Oct-26 15:33N 44°42' E 022°30'3 3.5
2016-Oct-26 14:33N 44°42' E 022°25'12 5.2
2016-Oct-26 12:19N 44°34' E 022°14'5 5.7
2016-Oct-26 11:30N 44°29' E 022°12'4 4.7
2016-Oct-26 10:33N 44°30' E 022°05'6 5.8
2016-Oct-26 09:33N 44°35' E 022°02'25 5.0
2016-Oct-26 04:33N 44°46' E 021°30'  
2016-Oct-21 06:33N 44°43' E 021°03'6 1.0
2016-Oct-21 00:28N 44°40' E 020°55'0 0.0
2016-Oct-20 22:31N 44°40' E 020°55'0 0.0
2016-Oct-20 20:31N 44°40' E 020°55'0 0.0
2016-Oct-20 04:32N 44°40' E 020°55'0 0.0
2016-Oct-20 00:32N 44°40' E 020°55'0 0.0
2016-Oct-19 22:33N 44°40' E 020°55'0 0.0
2016-Oct-19 20:33N 44°40' E 020°55'3 3.2
2016-Oct-19 19:33N 44°39' E 020°51'12 4.1
2016-Oct-19 16:33N 44°48' E 020°38'4 3.8
2016-Oct-19 15:33N 44°51' E 020°36'4 4.5
2016-Oct-19 14:33N 44°50' E 020°30'1 0.6
2016-Oct-19 12:32N 44°49' E 020°29'0 0.0
2016-Oct-18 21:32N 44°49' E 020°29'0 0.0
2016-Oct-18 18:32N 44°49' E 020°29'0 0.0
2016-Oct-18 14:32N 44°49' E 020°29'0 0.0
2016-Oct-18 13:32N 44°49' E 020°29'0 0.0
2016-Oct-18 10:32N 44°49' E 020°29'0 0.0
2016-Oct-18 09:32N 44°49' E 020°29'0 0.0
2016-Oct-18 07:32N 44°49' E 020°29'  

Dump ship's entire track history